This is the latest recevied weather packets stored in our database for station/object OM5AST-13. If no packets are shown the sender has not sent any weather packets the latest 10 day(s).
| Time | Temp. | Humidity | Pressure | Rain* | Wind** | Luminosity | Snow |
|---|---|---|---|---|---|---|---|
| 1778264635 | 20° C | 42% | - | 0 mm | - | 0 W/m² | - |
| 1778263435 | 21.11° C | 39% | - | 0 mm | - | 0 W/m² | - |
| 1778262235 | 22.78° C | 35% | - | 0 mm | - | 0 W/m² | - |
| 1778261035 | 23.33° C | 35% | - | 0 mm | - | 0 W/m² | - |
| 1778259835 | 24.44° C | 32% | - | 0 mm | - | 0 W/m² | - |
| 1778258635 | 24.44° C | 32% | - | 0 mm | - | 0 W/m² | - |
| 1778257435 | 25° C | 31% | - | 0 mm | - | 0 W/m² | - |
| 1778256235 | 25° C | 32% | - | 0 mm | - | 0 W/m² | - |
| 1778255036 | 23.89° C | 33% | - | 0 mm | - | 0 W/m² | - |
| 1778253835 | 23.33° C | 35% | - | 0 mm | - | 0 W/m² | - |
| 1778252635 | 23.33° C | 34% | - | 0 mm | - | 0 W/m² | - |
| 1778251435 | 23.89° C | 34% | - | 0 mm | - | 0 W/m² | - |
| 1778250235 | 23.89° C | 35% | - | 0 mm | - | 0 W/m² | - |
| 1778249035 | 23.33° C | 36% | - | 0 mm | - | 0 W/m² | - |
| 1778247835 | 23.33° C | 36% | - | 0 mm | - | 0 W/m² | - |
| 1778246635 | 22.22° C | 39% | - | 0 mm | - | 0 W/m² | - |
| 1778245435 | 21.67° C | 39% | - | 0 mm | - | 0 W/m² | - |
| 1778244236 | 21.67° C | 40% | - | 0 mm | - | 0 W/m² | - |
| 1778243035 | 20.56° C | 42% | - | 0 mm | - | 0 W/m² | - |
| 1778241835 | 20.56° C | 43% | - | 0 mm | - | 0 W/m² | - |
| 1778240635 | 20° C | 43% | - | 0 mm | - | 0 W/m² | - |
| 1778239436 | 20° C | 44% | - | 0 mm | - | 0 W/m² | - |
| 1778238235 | 20° C | 44% | - | 0 mm | - | 0 W/m² | - |
| 1778237035 | 19.44° C | 45% | - | 0 mm | - | 0 W/m² | - |
| 1778235835 | 19.44° C | 46% | - | 0 mm | - | 0 W/m² | - |
* Rain latest hour (hover to see other rain measurements)
** Current wind speed in m/s (hover to see current wind gust speed)